sensor_id;sensor_type;location;lat;lon;timestamp;pressure;altitude;pressure_sealevel;temperature;humidity
15604;BME280;7902;49.042;9.092;2024-02-26T00:01:08;97216.03;;;10.53;56.95
15604;BME280;7902;49.042;9.092;2024-02-26T00:03:34;97215.94;;;10.63;56.01
15604;BME280;7902;49.042;9.092;2024-02-26T00:06:02;97209.34;;;10.59;56.84
15604;BME280;7902;49.042;9.092;2024-02-26T00:08:28;97205.56;;;10.61;56.29
15604;BME280;7902;49.042;9.092;2024-02-26T00:10:54;97213.13;;;10.64;56.50
15604;BME280;7902;49.042;9.092;2024-02-26T00:13:20;97206.06;;;10.65;56.40
15604;BME280;7902;49.042;9.092;2024-02-26T00:15:47;97211.78;;;10.60;56.53
15604;BME280;7902;49.042;9.092;2024-02-26T00:18:13;97207.25;;;10.70;56.79
15604;BME280;7902;49.042;9.092;2024-02-26T00:20:39;97212.47;;;10.62;56.77
15604;BME280;7902;49.042;9.092;2024-02-26T00:23:08;97205.22;;;10.56;56.04
15604;BME280;7902;49.042;9.092;2024-02-26T00:25:34;97210.47;;;10.56;56.77
15604;BME280;7902;49.042;9.092;2024-02-26T00:28:02;97209.03;;;10.62;56.86
15604;BME280;7902;49.042;9.092;2024-02-26T00:30:28;97210.00;;;10.61;56.87
15604;BME280;7902;49.042;9.092;2024-02-26T00:32:54;97208.56;;;10.66;56.23
15604;BME280;7902;49.042;9.092;2024-02-26T00:35:20;97199.03;;;10.65;56.27
15604;BME280;7902;49.042;9.092;2024-02-26T00:37:46;97198.72;;;10.68;56.46
15604;BME280;7902;49.042;9.092;2024-02-26T00:40:12;97200.00;;;10.64;56.44
15604;BME280;7902;49.042;9.092;2024-02-26T00:42:38;97205.78;;;10.68;56.15
15604;BME280;7902;49.042;9.092;2024-02-26T00:45:04;97203.63;;;10.63;56.88
15604;BME280;7902;49.042;9.092;2024-02-26T00:47:30;97205.25;;;10.64;55.98
15604;BME280;7902;49.042;9.092;2024-02-26T00:49:56;97202.78;;;10.54;56.77
15604;BME280;7902;49.042;9.092;2024-02-26T00:52:22;97195.75;;;10.63;57.29
15604;BME280;7902;49.042;9.092;2024-02-26T00:54:48;97216.31;;;10.84;56.59
15604;BME280;7902;49.042;9.092;2024-02-26T00:57:14;97204.69;;;10.86;55.63
15604;BME280;7902;49.042;9.092;2024-02-26T00:59:40;97215.47;;;10.75;56.72
15604;BME280;7902;49.042;9.092;2024-02-26T01:02:06;97216.19;;;10.85;55.82
15604;BME280;7902;49.042;9.092;2024-02-26T01:04:32;97219.03;;;10.58;56.65
15604;BME280;7902;49.042;9.092;2024-02-26T01:06:59;97208.91;;;10.71;56.40
15604;BME280;7902;49.042;9.092;2024-02-26T01:09:25;97213.88;;;10.82;56.27
15604;BME280;7902;49.042;9.092;2024-02-26T01:11:51;97202.69;;;10.72;56.08
15604;BME280;7902;49.042;9.092;2024-02-26T01:14:17;97207.19;;;10.54;56.71
15604;BME280;7902;49.042;9.092;2024-02-26T01:16:43;97216.19;;;10.51;57.09
15604;BME280;7902;49.042;9.092;2024-02-26T01:19:09;97213.41;;;10.53;57.50
15604;BME280;7902;49.042;9.092;2024-02-26T01:21:35;97227.25;;;10.63;57.49
15604;BME280;7902;49.042;9.092;2024-02-26T01:24:01;97213.13;;;10.64;56.49
15604;BME280;7902;49.042;9.092;2024-02-26T01:26:27;97227.59;;;10.68;56.92
15604;BME280;7902;49.042;9.092;2024-02-26T01:28:53;97241.38;;;10.70;56.34
15604;BME280;7902;49.042;9.092;2024-02-26T01:31:20;97233.19;;;10.73;56.45
15604;BME280;7902;49.042;9.092;2024-02-26T01:33:46;97242.19;;;10.71;56.82
15604;BME280;7902;49.042;9.092;2024-02-26T01:36:12;97250.88;;;10.63;56.50
15604;BME280;7902;49.042;9.092;2024-02-26T01:38:38;97225.13;;;10.67;56.84
15604;BME280;7902;49.042;9.092;2024-02-26T01:41:04;97246.34;;;10.47;57.05
15604;BME280;7902;49.042;9.092;2024-02-26T01:43:30;97230.38;;;10.67;56.08
15604;BME280;7902;49.042;9.092;2024-02-26T01:45:56;97224.97;;;10.68;57.19
15604;BME280;7902;49.042;9.092;2024-02-26T01:48:22;97223.63;;;10.64;57.01
15604;BME280;7902;49.042;9.092;2024-02-26T01:50:47;97214.78;;;10.65;56.35
15604;BME280;7902;49.042;9.092;2024-02-26T01:53:14;97211.50;;;10.63;56.52
15604;BME280;7902;49.042;9.092;2024-02-26T01:55:40;97198.84;;;10.59;57.31
15604;BME280;7902;49.042;9.092;2024-02-26T01:58:06;97183.25;;;10.57;56.77
15604;BME280;7902;49.042;9.092;2024-02-26T02:00:32;97176.66;;;10.45;57.59
15604;BME280;7902;49.042;9.092;2024-02-26T02:02:58;97172.75;;;10.57;57.21
15604;BME280;7902;49.042;9.092;2024-02-26T02:05:25;97169.34;;;10.65;57.18
15604;BME280;7902;49.042;9.092;2024-02-26T02:07:51;97176.56;;;10.63;57.44
15604;BME280;7902;49.042;9.092;2024-02-26T02:10:19;97182.66;;;10.71;57.05
15604;BME280;7902;49.042;9.092;2024-02-26T02:12:48;97198.41;;;10.71;57.03
15604;BME280;7902;49.042;9.092;2024-02-26T02:15:15;97193.47;;;10.68;57.65
15604;BME280;7902;49.042;9.092;2024-02-26T02:17:41;97209.22;;;10.68;57.56
15604;BME280;7902;49.042;9.092;2024-02-26T02:20:15;97225.28;;;10.65;57.62
15604;BME280;7902;49.042;9.092;2024-02-26T02:22:43;97233.50;;;10.70;57.29
15604;BME280;7902;49.042;9.092;2024-02-26T02:25:09;97228.69;;;10.57;57.69
15604;BME280;7902;49.042;9.092;2024-02-26T02:27:35;97231.56;;;10.72;56.92
15604;BME280;7902;49.042;9.092;2024-02-26T02:30:01;97227.88;;;10.57;57.27
15604;BME280;7902;49.042;9.092;2024-02-26T02:32:28;97231.34;;;10.66;57.75
15604;BME280;7902;49.042;9.092;2024-02-26T02:34:55;97206.91;;;10.65;57.32
15604;BME280;7902;49.042;9.092;2024-02-26T02:37:22;97204.47;;;10.64;56.95
15604;BME280;7902;49.042;9.092;2024-02-26T02:39:48;97220.34;;;10.62;57.65
15604;BME280;7902;49.042;9.092;2024-02-26T02:42:15;97230.84;;;10.62;57.50
15604;BME280;7902;49.042;9.092;2024-02-26T02:44:40;97226.78;;;10.68;58.07
15604;BME280;7902;49.042;9.092;2024-02-26T02:47:06;97248.44;;;10.70;57.37
15604;BME280;7902;49.042;9.092;2024-02-26T02:49:32;97239.06;;;10.67;57.09
15604;BME280;7902;49.042;9.092;2024-02-26T02:51:58;97240.38;;;10.63;57.03
15604;BME280;7902;49.042;9.092;2024-02-26T02:54:24;97247.22;;;10.56;57.49
15604;BME280;7902;49.042;9.092;2024-02-26T02:56:50;97255.66;;;10.68;57.57
15604;BME280;7902;49.042;9.092;2024-02-26T02:59:16;97262.00;;;10.65;56.98
15604;BME280;7902;49.042;9.092;2024-02-26T03:01:42;97257.09;;;10.62;58.00
15604;BME280;7902;49.042;9.092;2024-02-26T03:04:08;97250.53;;;10.66;57.46
15604;BME280;7902;49.042;9.092;2024-02-26T03:06:34;97248.91;;;10.65;57.20
15604;BME280;7902;49.042;9.092;2024-02-26T03:08:59;97253.16;;;10.66;57.57
15604;BME280;7902;49.042;9.092;2024-02-26T03:11:26;97255.31;;;10.71;57.53
15604;BME280;7902;49.042;9.092;2024-02-26T03:13:52;97257.44;;;10.67;57.59
15604;BME280;7902;49.042;9.092;2024-02-26T03:16:18;97265.63;;;10.64;57.52
15604;BME280;7902;49.042;9.092;2024-02-26T03:18:44;97263.06;;;10.72;56.75
15604;BME280;7902;49.042;9.092;2024-02-26T03:21:10;97251.53;;;10.65;57.49
15604;BME280;7902;49.042;9.092;2024-02-26T03:23:36;97246.94;;;10.67;57.81
15604;BME280;7902;49.042;9.092;2024-02-26T03:26:03;97244.94;;;10.61;57.98
15604;BME280;7902;49.042;9.092;2024-02-26T03:28:29;97247.31;;;10.72;57.49
15604;BME280;7902;49.042;9.092;2024-02-26T03:30:56;97251.72;;;10.72;57.72
15604;BME280;7902;49.042;9.092;2024-02-26T03:33:22;97250.53;;;10.66;58.28
15604;BME280;7902;49.042;9.092;2024-02-26T03:35:48;97252.56;;;10.72;57.93
15604;BME280;7902;49.042;9.092;2024-02-26T03:38:14;97255.94;;;10.65;58.60
15604;BME280;7902;49.042;9.092;2024-02-26T03:40:40;97258.91;;;10.70;57.94
15604;BME280;7902;49.042;9.092;2024-02-26T03:43:06;97259.44;;;10.73;58.01
15604;BME280;7902;49.042;9.092;2024-02-26T03:45:33;97256.94;;;10.64;57.87
15604;BME280;7902;49.042;9.092;2024-02-26T03:47:59;97247.78;;;10.68;58.19
15604;BME280;7902;49.042;9.092;2024-02-26T03:50:25;97240.19;;;10.65;58.40
15604;BME280;7902;49.042;9.092;2024-02-26T03:52:51;97232.16;;;10.66;58.41
15604;BME280;7902;49.042;9.092;2024-02-26T03:55:17;97235.47;;;10.68;58.61
15604;BME280;7902;49.042;9.092;2024-02-26T03:57:46;97240.25;;;10.73;58.14
15604;BME280;7902;49.042;9.092;2024-02-26T04:00:13;97236.91;;;10.63;58.13
15604;BME280;7902;49.042;9.092;2024-02-26T04:02:39;97239.91;;;10.68;59.20
15604;BME280;7902;49.042;9.092;2024-02-26T04:05:05;97229.28;;;10.77;58.76
15604;BME280;7902;49.042;9.092;2024-02-26T04:07:34;97226.81;;;10.76;58.87
15604;BME280;7902;49.042;9.092;2024-02-26T04:10:00;97223.31;;;10.67;58.51
15604;BME280;7902;49.042;9.092;2024-02-26T04:12:26;97216.63;;;10.73;58.96
15604;BME280;7902;49.042;9.092;2024-02-26T04:14:52;97226.31;;;10.72;59.01
15604;BME280;7902;49.042;9.092;2024-02-26T04:17:18;97221.06;;;10.72;58.67
15604;BME280;7902;49.042;9.092;2024-02-26T04:19:44;97207.44;;;10.69;58.63
15604;BME280;7902;49.042;9.092;2024-02-26T04:22:10;97205.19;;;10.82;58.87
15604;BME280;7902;49.042;9.092;2024-02-26T04:24:36;97220.25;;;10.80;59.11
15604;BME280;7902;49.042;9.092;2024-02-26T04:27:02;97218.44;;;10.80;58.55
15604;BME280;7902;49.042;9.092;2024-02-26T04:29:28;97229.63;;;10.82;58.78
15604;BME280;7902;49.042;9.092;2024-02-26T04:31:54;97227.00;;;10.82;59.19
15604;BME280;7902;49.042;9.092;2024-02-26T04:34:20;97226.53;;;10.87;59.11
15604;BME280;7902;49.042;9.092;2024-02-26T04:36:46;97221.41;;;10.77;59.67
15604;BME280;7902;49.042;9.092;2024-02-26T04:39:13;97228.47;;;10.85;59.17
15604;BME280;7902;49.042;9.092;2024-02-26T04:41:39;97217.13;;;10.76;58.59
15604;BME280;7902;49.042;9.092;2024-02-26T04:44:05;97215.13;;;10.70;58.94
15604;BME280;7902;49.042;9.092;2024-02-26T04:46:31;97212.22;;;10.73;59.43
15604;BME280;7902;49.042;9.092;2024-02-26T04:48:57;97218.25;;;10.74;59.07
15604;BME280;7902;49.042;9.092;2024-02-26T04:51:24;97214.72;;;10.83;59.39
15604;BME280;7902;49.042;9.092;2024-02-26T04:53:50;97211.41;;;10.81;59.21
15604;BME280;7902;49.042;9.092;2024-02-26T04:56:16;97217.63;;;10.80;58.96
15604;BME280;7902;49.042;9.092;2024-02-26T04:58:41;97209.59;;;10.81;58.77
15604;BME280;7902;49.042;9.092;2024-02-26T05:01:07;97220.22;;;10.72;59.44
15604;BME280;7902;49.042;9.092;2024-02-26T05:03:35;97217.75;;;10.70;60.09
15604;BME280;7902;49.042;9.092;2024-02-26T05:06:01;97212.13;;;10.57;60.46
15604;BME280;7902;49.042;9.092;2024-02-26T05:08:27;97220.69;;;10.67;59.84
15604;BME280;7902;49.042;9.092;2024-02-26T05:10:54;97225.97;;;10.75;60.24
15604;BME280;7902;49.042;9.092;2024-02-26T05:13:20;97226.31;;;10.72;60.10
15604;BME280;7902;49.042;9.092;2024-02-26T05:15:46;97235.84;;;10.73;60.21
15604;BME280;7902;49.042;9.092;2024-02-26T05:18:15;97235.34;;;10.78;60.62
15604;BME280;7902;49.042;9.092;2024-02-26T05:20:41;97233.38;;;10.80;59.87
15604;BME280;7902;49.042;9.092;2024-02-26T05:23:07;97225.75;;;10.61;60.45
15604;BME280;7902;49.042;9.092;2024-02-26T05:25:33;97222.72;;;10.73;59.72
15604;BME280;7902;49.042;9.092;2024-02-26T05:27:58;97222.66;;;10.65;61.21
15604;BME280;7902;49.042;9.092;2024-02-26T05:30:24;97220.97;;;10.56;61.44
15604;BME280;7902;49.042;9.092;2024-02-26T05:32:52;97225.56;;;10.54;61.34
15604;BME280;7902;49.042;9.092;2024-02-26T05:35:18;97220.03;;;10.65;60.20
15604;BME280;7902;49.042;9.092;2024-02-26T05:37:44;97226.13;;;10.74;59.92
15604;BME280;7902;49.042;9.092;2024-02-26T05:40:11;97210.38;;;10.74;60.22
15604;BME280;7902;49.042;9.092;2024-02-26T05:42:36;97227.97;;;10.73;60.16
15604;BME280;7902;49.042;9.092;2024-02-26T05:45:03;97227.97;;;10.81;60.40
15604;BME280;7902;49.042;9.092;2024-02-26T05:47:35;97244.50;;;10.74;61.09
15604;BME280;7902;49.042;9.092;2024-02-26T05:50:01;97252.72;;;10.79;60.31
15604;BME280;7902;49.042;9.092;2024-02-26T05:52:28;97264.38;;;10.76;60.28
15604;BME280;7902;49.042;9.092;2024-02-26T05:54:55;97263.16;;;10.63;61.39
15604;BME280;7902;49.042;9.092;2024-02-26T05:57:21;97266.56;;;10.55;61.50
15604;BME280;7902;49.042;9.092;2024-02-26T05:59:47;97278.41;;;10.59;61.13
15604;BME280;7902;49.042;9.092;2024-02-26T06:02:13;97278.22;;;10.61;60.92
15604;BME280;7902;49.042;9.092;2024-02-26T06:04:39;97280.91;;;10.69;60.30
15604;BME280;7902;49.042;9.092;2024-02-26T06:07:05;97296.19;;;10.73;60.94
15604;BME280;7902;49.042;9.092;2024-02-26T06:09:31;97287.97;;;10.68;60.66
15604;BME280;7902;49.042;9.092;2024-02-26T06:11:57;97296.19;;;10.73;60.89
15604;BME280;7902;49.042;9.092;2024-02-26T06:14:22;97296.41;;;10.54;59.81
15604;BME280;7902;49.042;9.092;2024-02-26T06:16:49;97292.56;;;10.74;60.39
15604;BME280;7902;49.042;9.092;2024-02-26T06:19:15;97304.72;;;10.75;60.26
15604;BME280;7902;49.042;9.092;2024-02-26T06:21:41;97313.28;;;10.77;60.17
15604;BME280;7902;49.042;9.092;2024-02-26T06:24:07;97314.81;;;10.62;60.34
15604;BME280;7902;49.042;9.092;2024-02-26T06:26:32;97309.47;;;10.72;60.73
15604;BME280;7902;49.042;9.092;2024-02-26T06:28:59;97314.91;;;10.78;60.55
15604;BME280;7902;49.042;9.092;2024-02-26T06:31:25;97307.97;;;10.69;60.35
15604;BME280;7902;49.042;9.092;2024-02-26T06:33:53;97311.00;;;10.82;59.83
15604;BME280;7902;49.042;9.092;2024-02-26T06:36:19;97308.97;;;10.68;60.44
15604;BME280;7902;49.042;9.092;2024-02-26T06:38:45;97301.59;;;10.72;60.48
15604;BME280;7902;49.042;9.092;2024-02-26T06:41:11;97302.44;;;10.72;60.87
15604;BME280;7902;49.042;9.092;2024-02-26T06:43:37;97296.50;;;10.70;60.46
15604;BME280;7902;49.042;9.092;2024-02-26T06:46:15;97295.19;;;10.74;59.68
15604;BME280;7902;49.042;9.092;2024-02-26T06:48:51;97315.84;;;10.69;61.80
15604;BME280;7902;49.042;9.092;2024-02-26T06:51:20;97318.09;;;10.64;62.23
15604;BME280;7902;49.042;9.092;2024-02-26T06:53:51;97309.81;;;10.51;62.62
15604;BME280;7902;49.042;9.092;2024-02-26T06:56:24;97310.50;;;10.53;62.69
15604;BME280;7902;49.042;9.092;2024-02-26T06:58:49;97318.25;;;10.54;62.22
15604;BME280;7902;49.042;9.092;2024-02-26T07:01:15;97315.34;;;10.66;61.41
15604;BME280;7902;49.042;9.092;2024-02-26T07:03:41;97322.09;;;10.68;61.92
15604;BME280;7902;49.042;9.092;2024-02-26T07:06:08;97318.38;;;10.53;61.12
15604;BME280;7902;49.042;9.092;2024-02-26T07:08:34;97325.06;;;10.73;61.59
15604;BME280;7902;49.042;9.092;2024-02-26T07:11:00;97340.00;;;10.73;61.45
15604;BME280;7902;49.042;9.092;2024-02-26T07:13:26;97334.91;;;10.71;62.03
15604;BME280;7902;49.042;9.092;2024-02-26T07:15:52;97326.19;;;10.71;60.50
15604;BME280;7902;49.042;9.092;2024-02-26T07:18:18;97337.25;;;10.82;61.16
15604;BME280;7902;49.042;9.092;2024-02-26T07:20:43;97332.16;;;10.81;61.30
15604;BME280;7902;49.042;9.092;2024-02-26T07:23:09;97333.63;;;10.83;61.86
15604;BME280;7902;49.042;9.092;2024-02-26T07:25:35;97340.25;;;10.87;61.22
15604;BME280;7902;49.042;9.092;2024-02-26T07:28:01;97339.25;;;10.88;61.81
15604;BME280;7902;49.042;9.092;2024-02-26T07:30:27;97344.69;;;10.87;61.98
15604;BME280;7902;49.042;9.092;2024-02-26T07:32:53;97348.28;;;10.86;61.27
15604;BME280;7902;49.042;9.092;2024-02-26T07:35:19;97341.22;;;10.86;61.61
15604;BME280;7902;49.042;9.092;2024-02-26T07:37:48;97353.72;;;10.92;61.15
15604;BME280;7902;49.042;9.092;2024-02-26T07:40:14;97360.25;;;10.88;60.93
15604;BME280;7902;49.042;9.092;2024-02-26T07:42:40;97369.78;;;10.89;60.84
15604;BME280;7902;49.042;9.092;2024-02-26T07:45:06;97373.44;;;10.96;60.32
15604;BME280;7902;49.042;9.092;2024-02-26T07:47:32;97371.28;;;10.92;60.60
15604;BME280;7902;49.042;9.092;2024-02-26T07:50:00;97386.75;;;11.03;61.01
15604;BME280;7902;49.042;9.092;2024-02-26T07:52:26;97379.34;;;10.98;61.01
15604;BME280;7902;49.042;9.092;2024-02-26T07:54:52;97378.34;;;10.91;61.11
15604;BME280;7902;49.042;9.092;2024-02-26T07:57:18;97379.81;;;10.94;61.20
15604;BME280;7902;49.042;9.092;2024-02-26T07:59:44;97383.88;;;10.88;61.95
15604;BME280;7902;49.042;9.092;2024-02-26T08:02:10;97379.31;;;10.90;60.47
15604;BME280;7902;49.042;9.092;2024-02-26T08:04:36;97379.28;;;10.82;61.89
15604;BME280;7902;49.042;9.092;2024-02-26T08:07:02;97381.25;;;10.88;62.14
15604;BME280;7902;49.042;9.092;2024-02-26T08:09:28;97368.81;;;10.90;61.22
15604;BME280;7902;49.042;9.092;2024-02-26T08:11:54;97375.72;;;10.91;63.02
15604;BME280;7902;49.042;9.092;2024-02-26T08:14:21;97378.38;;;10.99;61.20
15604;BME280;7902;49.042;9.092;2024-02-26T08:16:46;97374.28;;;10.97;62.04
15604;BME280;7902;49.042;9.092;2024-02-26T08:19:12;97392.44;;;10.90;61.94
15604;BME280;7902;49.042;9.092;2024-02-26T08:21:41;97392.75;;;10.87;62.63
15604;BME280;7902;49.042;9.092;2024-02-26T08:24:07;97391.66;;;10.98;62.10
15604;BME280;7902;49.042;9.092;2024-02-26T08:26:33;97390.84;;;10.97;61.83
15604;BME280;7902;49.042;9.092;2024-02-26T08:28:59;97394.28;;;10.98;61.70
15604;BME280;7902;49.042;9.092;2024-02-26T08:31:24;97388.88;;;10.99;62.57
15604;BME280;7902;49.042;9.092;2024-02-26T08:33:50;97392.34;;;11.00;62.14
15604;BME280;7902;49.042;9.092;2024-02-26T08:36:16;97378.53;;;10.98;62.97
15604;BME280;7902;49.042;9.092;2024-02-26T08:38:42;97390.13;;;10.87;62.54
15604;BME280;7902;49.042;9.092;2024-02-26T08:41:08;97392.09;;;10.85;63.13
15604;BME280;7902;49.042;9.092;2024-02-26T08:43:34;97387.56;;;10.95;62.98
15604;BME280;7902;49.042;9.092;2024-02-26T08:46:00;97389.44;;;11.11;62.28
15604;BME280;7902;49.042;9.092;2024-02-26T08:48:26;97394.03;;;11.09;62.15
15604;BME280;7902;49.042;9.092;2024-02-26T08:50:52;97396.63;;;11.01;62.50
15604;BME280;7902;49.042;9.092;2024-02-26T08:53:18;97393.66;;;11.04;63.09
15604;BME280;7902;49.042;9.092;2024-02-26T08:55:44;97392.94;;;11.20;62.74
15604;BME280;7902;49.042;9.092;2024-02-26T08:58:09;97393.13;;;11.26;63.33
15604;BME280;7902;49.042;9.092;2024-02-26T09:00:35;97389.50;;;11.19;62.58
15604;BME280;7902;49.042;9.092;2024-02-26T09:03:01;97400.84;;;11.28;62.83
15604;BME280;7902;49.042;9.092;2024-02-26T09:05:27;97392.28;;;11.26;61.86
15604;BME280;7902;49.042;9.092;2024-02-26T09:07:53;97393.94;;;11.27;62.06
15604;BME280;7902;49.042;9.092;2024-02-26T09:10:19;97394.44;;;11.30;62.69
15604;BME280;7902;49.042;9.092;2024-02-26T09:12:45;97395.00;;;11.34;62.14
15604;BME280;7902;49.042;9.092;2024-02-26T09:15:11;97396.31;;;11.38;63.26
15604;BME280;7902;49.042;9.092;2024-02-26T09:17:38;97398.44;;;11.34;63.15
15604;BME280;7902;49.042;9.092;2024-02-26T09:20:04;97400.53;;;11.31;62.45
15604;BME280;7902;49.042;9.092;2024-02-26T09:22:31;97398.25;;;11.36;61.65
15604;BME280;7902;49.042;9.092;2024-02-26T09:24:57;97392.50;;;11.32;61.70
15604;BME280;7902;49.042;9.092;2024-02-26T09:27:23;97402.03;;;11.33;62.21
15604;BME280;7902;49.042;9.092;2024-02-26T09:29:49;97393.66;;;11.30;60.67
15604;BME280;7902;49.042;9.092;2024-02-26T09:32:15;97400.53;;;11.31;60.67
15604;BME280;7902;49.042;9.092;2024-02-26T09:34:41;97392.94;;;11.20;60.66
15604;BME280;7902;49.042;9.092;2024-02-26T09:37:07;97396.34;;;11.12;60.82
15604;BME280;7902;49.042;9.092;2024-02-26T09:39:33;97392.38;;;11.08;60.44
15604;BME280;7902;49.042;9.092;2024-02-26T09:42:01;97401.97;;;11.25;61.03
15604;BME280;7902;49.042;9.092;2024-02-26T09:44:30;97407.44;;;11.32;61.63
15604;BME280;7902;49.042;9.092;2024-02-26T09:46:57;97398.59;;;11.33;60.89
15604;BME280;7902;49.042;9.092;2024-02-26T09:49:24;97404.78;;;11.24;60.92
15604;BME280;7902;49.042;9.092;2024-02-26T09:51:52;97404.31;;;11.28;61.38
15604;BME280;7902;49.042;9.092;2024-02-26T09:54:19;97407.66;;;11.38;60.89
15604;BME280;7902;49.042;9.092;2024-02-26T09:56:47;97403.59;;;11.18;60.29
15604;BME280;7902;49.042;9.092;2024-02-26T09:59:17;97414.78;;;11.20;60.64
15604;BME280;7902;49.042;9.092;2024-02-26T10:01:44;97412.97;;;11.21;60.43
15604;BME280;7902;49.042;9.092;2024-02-26T10:04:12;97417.44;;;11.28;60.40
15604;BME280;7902;49.042;9.092;2024-02-26T10:06:39;97406.50;;;11.41;60.94
15604;BME280;7902;49.042;9.092;2024-02-26T10:09:05;97414.63;;;11.22;60.57
15604;BME280;7902;49.042;9.092;2024-02-26T10:11:35;97400.97;;;11.18;60.20
15604;BME280;7902;49.042;9.092;2024-02-26T10:14:01;97404.50;;;11.35;59.93
15604;BME280;7902;49.042;9.092;2024-02-26T10:16:27;97401.34;;;11.31;60.19
15604;BME280;7902;49.042;9.092;2024-02-26T10:18:54;97404.03;;;11.39;60.84
15604;BME280;7902;49.042;9.092;2024-02-26T10:21:20;97408.97;;;11.42;60.81
15604;BME280;7902;49.042;9.092;2024-02-26T10:23:47;97417.63;;;11.35;59.87
15604;BME280;7902;49.042;9.092;2024-02-26T10:26:14;97428.97;;;11.35;63.00
15604;BME280;7902;49.042;9.092;2024-02-26T10:28:42;97428.91;;;11.53;61.00
15604;BME280;7902;49.042;9.092;2024-02-26T10:31:09;97429.84;;;11.78;63.00
15604;BME280;7902;49.042;9.092;2024-02-26T10:33:38;97417.88;;;11.50;60.71
15604;BME280;7902;49.042;9.092;2024-02-26T10:36:05;97430.81;;;11.43;60.16
15604;BME280;7902;49.042;9.092;2024-02-26T10:38:35;97420.94;;;11.37;60.48
15604;BME280;7902;49.042;9.092;2024-02-26T10:41:02;97424.03;;;11.32;60.05
15604;BME280;7902;49.042;9.092;2024-02-26T10:43:29;97425.25;;;11.46;60.96
15604;BME280;7902;49.042;9.092;2024-02-26T10:45:55;97425.09;;;11.48;59.64
15604;BME280;7902;49.042;9.092;2024-02-26T10:48:22;97424.63;;;11.52;60.70
15604;BME280;7902;49.042;9.092;2024-02-26T10:50:48;97430.66;;;11.44;60.32
15604;BME280;7902;49.042;9.092;2024-02-26T10:53:20;97434.31;;;11.52;60.34
15604;BME280;7902;49.042;9.092;2024-02-26T10:55:55;97443.66;;;11.54;59.51
15604;BME280;7902;49.042;9.092;2024-02-26T10:58:23;97436.59;;;11.47;60.01
15604;BME280;7902;49.042;9.092;2024-02-26T11:00:51;97435.13;;;11.44;60.29
15604;BME280;7902;49.042;9.092;2024-02-26T11:03:18;97437.28;;;11.57;59.87
15604;BME280;7902;49.042;9.092;2024-02-26T11:05:49;97433.81;;;11.48;59.86
15604;BME280;7902;49.042;9.092;2024-02-26T11:08:18;97438.06;;;11.49;60.02
15604;BME280;7902;49.042;9.092;2024-02-26T11:10:47;97441.09;;;11.62;59.72
15604;BME280;7902;49.042;9.092;2024-02-26T11:13:16;97439.03;;;11.74;60.64
15604;BME280;7902;49.042;9.092;2024-02-26T11:15:46;97433.88;;;11.64;60.04
15604;BME280;7902;49.042;9.092;2024-02-26T11:18:14;97431.06;;;11.58;59.70
15604;BME280;7902;49.042;9.092;2024-02-26T11:20:41;97444.72;;;11.61;60.31
15604;BME280;7902;49.042;9.092;2024-02-26T11:23:08;97435.84;;;11.62;59.45
15604;BME280;7902;49.042;9.092;2024-02-26T11:25:35;97441.44;;;11.67;59.77
15604;BME280;7902;49.042;9.092;2024-02-26T11:28:08;97444.38;;;11.98;60.17
15604;BME280;7902;49.042;9.092;2024-02-26T11:30:37;97454.88;;;11.90;59.57
15604;BME280;7902;49.042;9.092;2024-02-26T11:33:07;97443.81;;;11.86;59.46
15604;BME280;7902;49.042;9.092;2024-02-26T11:35:36;97441.06;;;11.88;59.71
15604;BME280;7902;49.042;9.092;2024-02-26T11:38:02;97428.53;;;11.82;59.47
15604;BME280;7902;49.042;9.092;2024-02-26T11:40:31;97424.44;;;11.87;58.96
15604;BME280;7902;49.042;9.092;2024-02-26T11:42:58;97425.09;;;11.81;59.45
15604;BME280;7902;49.042;9.092;2024-02-26T11:48:15;97428.72;;;11.88;59.69
15604;BME280;7902;49.042;9.092;2024-02-26T11:50:41;97424.44;;;11.87;59.67
15604;BME280;7902;49.042;9.092;2024-02-26T11:53:27;97426.44;;;11.85;59.53
15604;BME280;7902;49.042;9.092;2024-02-26T11:58:56;97424.81;;;12.01;59.71
15604;BME280;7902;49.042;9.092;2024-02-26T12:06:50;97435.66;;;12.06;59.34
15604;BME280;7902;49.042;9.092;2024-02-26T12:09:44;97436.34;;;12.08;58.82
15604;BME280;7902;49.042;9.092;2024-02-26T12:12:16;97436.69;;;12.13;59.45
15604;BME280;7902;49.042;9.092;2024-02-26T12:14:55;97441.94;;;12.13;59.10
15604;BME280;7902;49.042;9.092;2024-02-26T12:17:23;97450.69;;;12.29;58.84
15604;BME280;7902;49.042;9.092;2024-02-26T12:19:50;97445.75;;;12.26;58.85
15604;BME280;7902;49.042;9.092;2024-02-26T12:22:17;97458.09;;;12.34;58.63
15604;BME280;7902;49.042;9.092;2024-02-26T12:24:43;97459.09;;;12.33;58.22
15604;BME280;7902;49.042;9.092;2024-02-26T12:27:09;97463.34;;;12.34;58.59
15604;BME280;7902;49.042;9.092;2024-02-26T12:29:35;97458.63;;;12.38;59.77
15604;BME280;7902;49.042;9.092;2024-02-26T12:32:02;97454.19;;;12.38;58.85
15604;BME280;7902;49.042;9.092;2024-02-26T12:34:29;97450.88;;;12.36;59.05
15604;BME280;7902;49.042;9.092;2024-02-26T12:36:56;97454.81;;;12.40;58.49
15604;BME280;7902;49.042;9.092;2024-02-26T12:39:22;97464.38;;;12.41;59.17
15604;BME280;7902;49.042;9.092;2024-02-26T12:41:48;97461.25;;;12.46;59.00
15604;BME280;7902;49.042;9.092;2024-02-26T12:44:16;97467.34;;;12.46;58.52
15604;BME280;7902;49.042;9.092;2024-02-26T12:46:42;97461.75;;;12.49;58.66
15604;BME280;7902;49.042;9.092;2024-02-26T12:49:08;97468.66;;;12.42;59.03
15604;BME280;7902;49.042;9.092;2024-02-26T12:51:34;97471.13;;;12.52;58.59
15604;BME280;7902;49.042;9.092;2024-02-26T12:54:01;97465.69;;;12.53;58.64
15604;BME280;7902;49.042;9.092;2024-02-26T12:56:27;97462.75;;;12.56;58.44
15604;BME280;7902;49.042;9.092;2024-02-26T12:58:53;97469.16;;;12.54;58.68
15604;BME280;7902;49.042;9.092;2024-02-26T13:01:23;97462.06;;;12.54;58.87
15604;BME280;7902;49.042;9.092;2024-02-26T13:03:51;97462.09;;;12.70;58.71
15604;BME280;7902;49.042;9.092;2024-02-26T13:06:18;97462.41;;;12.67;58.23
15604;BME280;7902;49.042;9.092;2024-02-26T13:08:45;97459.78;;;12.67;58.71
15604;BME280;7902;49.042;9.092;2024-02-26T13:11:13;97464.72;;;12.70;58.59
15604;BME280;7902;49.042;9.092;2024-02-26T13:13:39;97470.00;;;12.70;59.05
15604;BME280;7902;49.042;9.092;2024-02-26T13:16:07;97475.25;;;12.70;58.53
15604;BME280;7902;49.042;9.092;2024-02-26T13:18:34;97470.81;;;12.71;58.55